Date,TemperatureHighF,TemperatureAvgF,TemperatureLowF,DewpointHighF,DewpointAvgF,DewpointLowF,HumidityHigh,HumidityAvg,HumidityLow,PressureMaxIn,PressureMinIn,WindSpeedMaxMPH,WindSpeedAvgMPH,GustSpeedMaxMPH,PrecipitationSumIn
2013-1-1,78.4,64.1,50.9,59.2,47.2,39.1,92,61,28,30.23,30.05,0,0,1,0.01
2013-1-2,82.0,66.7,54.9,62.8,53.6,45.0,94,68,31,30.09,29.99,0,0,1,0.00
2013-1-3,73.4,64.5,57.2,70.8,61.1,54.3,99,90,62,30.19,30.04,0,0,1,0.05
2013-1-4,60.1,57.6,54.7,57.8,55.9,53.3,98,94,86,30.29,30.15,0,0,1,0.06
2013-1-5,77.5,64.4,54.0,57.9,49.8,41.3,98,64,32,30.32,30.19,0,0,1,0.00
2013-1-6,80.2,68.7,61.5,71.0,59.9,53.9,99,77,47,30.22,30.07,0,0,1,0.08
2013-1-7,67.5,62.3,57.4,65.7,54.1,43.4,95,77,45,30.24,30.13,0,0,1,0.02
2013-1-8,84.6,71.0,60.4,68.2,59.4,43.3,99,73,28,30.24,30.14,0,0,1,0.00
2013-1-9,85.1,74.9,68.5,70.1,62.9,50.6,99,71,34,30.31,30.19,0,0,2,0.01
2013-1-10,84.7,73.7,65.5,71.8,58.4,37.8,99,67,24,30.32,30.22,0,0,1,0.01
2013-1-11,82.0,71.1,61.2,68.4,59.5,50.8,98,71,39,30.28,30.16,0,0,2,0.00
2013-1-12,83.5,71.7,62.1,68.0,57.1,43.0,99,67,28,30.20,30.10,0,0,1,0.01
2013-1-13,83.7,72.0,62.4,64.3,57.1,42.5,94,65,28,30.18,30.08,0,0,1,0.00
2013-1-14,81.1,71.2,62.2,68.4,56.8,43.7,99,67,31,30.20,30.12,0,0,1,0.01
2013-1-15,83.1,70.9,60.1,69.0,55.4,38.6,99,66,25,30.16,30.06,0,0,0,0.00
2013-1-16,84.0,70.2,61.5,66.3,51.9,31.1,96,62,20,30.13,30.02,0,0,0,0.00
2013-1-17,76.8,62.5,52.9,70.4,52.5,33.3,99,73,45,30.14,30.01,0,0,0,0.21
2013-1-18,64.6,52.5,38.8,54.9,37.3,24.0,83,58,42,30.31,30.13,0,0,0,0.02
2013-1-19,76.3,64.1,53.1,52.9,45.5,39.3,73,55,30,30.29,30.14,0,0,0,0.00
2013-1-20,77.9,65.1,58.6,58.5,52.5,44.9,96,68,34,30.19,30.06,0,0,0,0.00
2013-1-21,73.2,64.8,59.7,57.9,49.9,44.0,73,60,39,30.11,30.01,0,0,0,0.02
2013-1-22,66.9,57.3,46.0,47.7,23.3,-4.4,66,37,10,30.29,30.08,11,1,19,0.00
2013-1-23,72.1,55.1,41.2,32.3,14.8,-5.6,63,33,10,30.38,30.27,11,2,20,0.00
2013-1-24,75.0,56.7,41.4,40.9,27.8,3.1,78,46,10,30.35,30.23,9,2,14,0.00
2013-1-25,77.2,59.7,45.7,59.0,33.5,5.6,93,53,10,30.33,30.18,10,1,14,0.00
2013-1-26,78.6,61.1,45.9,52.2,36.3,12.8,85,51,12,30.29,30.17,8,1,12,0.00
2013-1-27,80.4,63.8,48.4,61.2,41.8,9.2,93,57,10,30.33,30.22,9,2,14,0.00
2013-1-28,78.8,68.9,60.8,64.0,56.1,46.1,93,68,38,30.34,30.23,11,2,20,0.19
2013-1-29,83.7,71.7,64.4,70.6,59.7,42.1,99,73,28,30.26,30.11,11,4,17,0.00
2013-1-30,84.2,73.5,66.6,62.2,54.2,37.5,85,58,23,30.13,29.92,17,6,25,0.00
2013-1-31,70.0,58.2,44.4,61.9,27.7,-8.4,90,45,10,30.25,29.92,17,4,27,0.06
2013-2-1,72.0,52.5,36.5,24.9,8.0,-8.9,58,29,10,30.37,30.24,12,2,17,0.00
2013-2-2,73.6,55.6,37.6,31.8,15.9,-2.7,68,34,10,30.32,30.15,8,2,11,0.00
2013-2-3,72.3,56.8,45.9,33.9,19.0,0.1,63,31,10,30.20,30.08,15,3,24,0.00
2013-2-4,72.7,54.8,39.9,46.1,19.0,-6.0,80,40,10,30.17,30.04,8,1,11,0.00
2013-2-5,78.6,59.4,40.1,41.5,21.8,1.9,67,36,10,30.12,30.00,10,1,15,0.00
2013-2-6,79.0,67.2,54.5,52.6,38.4,18.6,63,42,14,30.13,30.03,7,1,14,0.00
2013-2-7,82.2,71.2,63.1,56.8,46.4,18.2,78,50,14,30.09,29.88,16,5,21,0.00
2013-2-8,81.7,69.4,55.6,59.7,40.4,7.0,80,49,10,30.10,29.89,14,6,22,0.00
2013-2-9,78.4,63.0,50.5,53.3,35.5,6.9,90,50,10,30.22,30.08,8,2,14,0.01
2013-2-10,79.0,64.9,57.2,47.6,40.0,22.2,61,47,17,30.25,30.16,14,3,21,0.00
2013-2-11,83.3,70.9,59.4,58.3,44.4,17.1,82,47,12,30.23,30.08,13,3,21,0.00
2013-2-12,78.3,71.4,61.2,65.9,57.7,52.6,92,66,46,30.12,29.97,11,2,15,0.00
2013-2-13,85.3,73.1,62.1,67.1,57.8,40.3,93,65,25,30.00,29.85,20,7,30,0.32
2013-2-14,63.5,62.4,58.8,58.2,54.0,49.0,93,75,62,30.05,29.93,5,2,8,0.35
2013-2-15,71.1,57.5,54.0,57.9,48.5,29.5,95,78,27,30.05,29.96,8,2,12,0.04
2013-2-16,68.4,57.0,48.0,45.2,25.8,-1.4,83,42,10,30.00,29.94,20,8,29,0.04
2013-2-17,56.5,52.7,36.7,55.0,20.7,-17.2,34,23,11,30.36,30.00,12,9,19,0.04
2013-2-18,69.3,50.4,35.8,35.5,17.0,-0.8,50,28,10,30.37,30.22,13,2,17,0.00
2013-2-19,79.0,62.7,46.9,49.0,28.8,6.3,76,40,10,30.24,30.08,17,3,26,0.00
2013-2-20,79.3,66.3,56.8,57.4,43.5,29.3,88,51,21,30.16,30.02,9,2,13,0.05
2013-2-21,82.4,69.7,57.2,55.1,40.5,18.4,68,43,14,30.13,30.00,9,2,11,0.00
2013-2-22,87.3,74.2,63.1,64.1,48.8,13.3,89,51,10,30.10,29.99,11,2,16,0.00
2013-2-23,99.0,75.7,68.9,68.0,61.1,18.4,94,67,17,30.11,29.91,17,5,26,0.36
2013-2-24,68.7,68.0,68.0,66.1,65.9,65.4,93,93,90,29.97,29.95,7,2,10,0.00
2013-2-25,86.9,75.9,68.0,65.9,63.2,58.2,93,70,42,29.95,29.82,9,4,15,0.04
2013-2-26,76.5,71.5,66.0,71.2,65.1,59.5,91,81,68,29.88,29.77,19,4,27,0.08
2013-2-27,78.3,65.9,54.5,60.1,53.9,47.2,96,69,39,30.02,29.88,12,4,17,0.08
2013-2-28,74.8,60.6,48.0,53.4,47.2,39.4,94,66,34,30.05,29.93,17,4,27,0.00
2013-3-1,65.3,54.6,45.9,46.5,37.7,29.2,83,57,30,30.06,29.96,15,5,22,0.00
2013-3-2,59.0,50.2,42.1,39.4,32.2,27.4,75,53,34,30.10,30.01,23,6,30,0.25
2013-3-3,53.8,43.8,35.6,35.9,28.6,26.0,78,57,40,30.21,30.04,17,5,27,0.00
2013-3-4,69.6,50.2,30.7,33.9,27.5,18.4,89,51,20,30.28,30.14,10,2,15,0.00
2013-3-5,76.6,60.0,43.5,56.9,41.8,29.9,85,56,24,30.22,30.06,17,4,25,0.00
2013-3-6,66.0,57.9,45.9,60.8,38.3,23.1,90,54,24,30.19,29.98,23,8,32,0.06
2013-3-7,71.8,52.5,36.7,37.9,32.5,28.8,75,52,26,30.27,30.16,11,3,16,0.00
2013-3-8,78.6,57.7,37.9,44.7,36.0,25.5,88,55,18,30.27,30.14,9,2,14,0.00
2013-3-9,78.3,61.5,44.4,48.8,44.4,39.8,89,59,29,30.27,30.16,10,2,14,0.00
2013-3-10,79.9,66.8,54.7,53.1,50.5,48.1,85,60,38,30.21,30.09,14,4,21,0.00
2013-3-11,75.7,73.4,56.8,57.4,55.3,53.0,89,55,51,30.14,30.05,13,6,21,0.00
2013-3-12,75.7,68.4,63.9,66.5,61.7,55.1,95,80,51,30.06,29.91,14,5,21,0.38
2013-3-13,76.8,60.8,47.1,62.5,39.4,25.2,92,55,20,30.21,29.95,14,5,21,0.00
2013-3-14,70.9,55.7,43.3,43.9,31.3,20.0,84,47,19,30.31,30.19,13,3,18,0.00
2013-3-15,75.9,55.5,36.5,42.8,34.9,24.6,87,55,24,30.33,30.17,10,1,16,0.00
2013-3-16,80.1,60.8,43.0,47.5,41.8,37.3,90,58,26,30.24,30.08,11,2,18,0.00
2013-3-17,78.8,63.6,48.7,57.5,50.9,45.8,95,68,41,30.19,30.03,11,2,17,0.00
2013-3-18,77.9,69.2,64.2,64.7,59.3,55.5,85,72,58,30.09,29.91,12,2,21,0.00
2013-3-19,87.6,72.8,61.7,66.9,61.5,58.5,98,72,42,30.04,29.92,10,2,14,0.00
2013-3-20,76.5,67.1,59.5,66.3,60.1,55.5,95,80,54,30.01,29.83,14,3,21,0.02
2013-3-21,72.9,59.4,46.8,57.4,38.4,20.8,97,56,20,30.03,29.91,13,4,17,0.01
2013-3-22,79.2,59.7,42.1,64.7,47.8,33.6,97,70,33,30.06,29.93,12,2,17,0.35
2013-3-23,86.4,73.3,63.0,71.8,66.4,61.8,99,82,52,30.03,29.82,19,4,30,0.01
2013-3-24,82.2,75.4,69.4,72.4,69.8,66.0,93,84,66,29.88,29.68,22,8,37,0.17
2013-3-25,71.6,63.6,50.7,66.1,43.0,19.6,94,55,20,30.08,29.77,19,7,26,0.00
2013-3-26,58.5,51.1,42.3,41.4,29.1,20.6,68,46,28,30.28,30.07,24,7,31,0.05
2013-3-27,66.0,49.0,35.2,35.0,30.2,24.2,80,54,25,30.35,30.23,14,4,19,0.01
2013-3-28,74.5,54.4,34.7,41.2,32.1,23.9,90,53,20,30.34,30.21,11,2,15,0.00
2013-3-29,76.5,59.1,41.0,47.3,35.9,27.3,86,51,20,30.37,30.22,10,1,14,0.00
2013-3-30,79.7,62.6,45.5,51.9,45.0,38.8,86,58,33,30.30,30.14,11,2,17,0.00
2013-3-31,82.8,68.9,54.7,58.0,52.0,48.1,84,59,34,30.21,30.04,13,3,21,0.00
2013-4-1,84.4,72.1,63.0,65.6,60.7,57.8,92,70,44,30.07,29.98,20,4,26,0.00
2013-4-2,85.5,72.0,57.7,63.8,58.1,50.6,99,68,34,30.13,30.03,8,2,14,0.01
2013-4-3,85.3,72.0,63.1,67.5,62.1,56.9,99,75,43,30.13,29.97,16,3,23,0.18
2013-4-4,73.2,69.4,66.7,69.0,66.5,62.7,99,91,74,30.07,29.90,14,4,21,0.39
2013-4-5,77.4,68.3,60.1,67.5,60.8,53.1,98,79,48,30.03,29.85,15,5,23,0.02
2013-4-6,79.9,65.5,53.4,57.2,54.5,51.4,96,72,42,30.16,30.02,11,4,16,0.00
2013-4-7,85.1,69.7,57.2,62.6,57.1,52.6,98,69,38,30.19,30.09,11,2,15,0.00
2013-4-8,67.8,67.7,67.3,63.1,62.0,60.0,86,82,77,30.16,30.15,2,1,4,0.00
2013-4-9,71.8,68.3,59.4,66.6,63.4,56.3,97,85,61,30.18,30.11,5,1,9,0.00
2013-4-10,89.8,74.3,59.2,70.5,62.5,57.9,97,71,39,30.16,29.99,14,3,22,0.00
2013-4-11,89.1,78.5,72.9,72.9,70.1,66.4,92,78,50,30.04,29.86,14,5,21,0.15
2013-4-12,82.8,77.0,72.9,74.4,71.8,68.8,97,85,67,29.95,29.83,19,5,29,0.01
2013-4-13,86.5,76.6,68.2,71.6,67.6,61.7,99,77,51,30.03,29.91,9,2,12,0.00
2013-4-14,89.4,76.3,67.3,73.4,67.3,59.6,87,75,55,30.05,29.87,24,4,30,0.02
2013-4-15,93.2,77.7,64.8,69.5,64.3,60.8,91,67,40,30.12,29.96,8,2,12,0.00
2013-4-16,90.3,77.9,68.2,72.6,68.0,65.2,96,74,49,30.19,30.07,10,3,24,0.00
2013-4-17,87.4,74.8,63.9,70.8,64.3,60.0,99,74,44,30.19,30.06,13,3,20,0.00
2013-4-18,89.6,77.5,66.7,72.1,66.6,62.9,99,73,44,30.10,29.98,11,3,19,0.31
2013-4-19,89.1,79.1,72.0,74.4,70.5,62.9,99,78,51,30.06,29.96,16,4,24,0.19
2013-4-20,74.1,67.1,60.3,72.9,63.5,56.3,99,89,83,30.20,30.00,14,3,22,0.01
2013-4-21,80.4,68.6,60.1,71.7,64.9,56.0,99,89,67,30.19,30.05,8,3,14,0.19
2013-4-22,82.8,71.0,65.5,70.3,66.9,63.1,99,88,59,30.13,30.02,11,4,21,0.08
2013-4-23,85.8,72.6,65.5,65.6,61.9,56.3,94,73,44,30.15,30.07,8,3,14,0.00
2013-4-24,87.3,73.6,57.0,64.1,59.1,54.1,99,67,36,30.19,30.10,11,2,18,0.01
2013-4-25,90.1,75.6,61.0,67.3,62.0,57.1,99,68,37,30.25,30.14,7,1,10,0.00
2013-4-26,89.6,75.3,62.1,67.3,63.0,58.5,97,69,38,30.28,30.18,9,1,14,0.00
2013-4-27,86.0,75.1,65.1,69.7,65.1,61.1,99,74,48,30.27,30.13,11,3,18,0.00
2013-4-28,86.5,75.2,64.2,67.0,62.3,56.8,99,69,40,30.18,30.01,14,4,21,0.00
2013-4-29,86.5,76.3,66.0,67.6,64.5,61.1,95,70,47,30.07,29.93,10,3,16,0.00
2013-4-30,92.1,75.5,68.2,72.6,68.1,63.1,99,82,43,30.06,29.94,12,2,22,0.83
2013-5-1,72.5,71.4,69.1,72.2,71.1,68.8,99,99,99,30.04,29.97,6,1,9,0.01
2013-5-2,78.6,72.3,69.1,72.2,70.9,68.8,99,96,79,30.04,29.85,8,1,11,3.09
2013-5-3,86.2,71.8,65.8,72.2,68.6,65.5,99,91,56,29.88,29.75,14,3,22,0.80
2013-5-4,83.1,73.3,67.8,69.7,67.5,64.2,99,84,57,29.85,29.70,16,5,21,0.00
2013-5-5,78.8,69.3,61.9,67.9,54.3,42.7,99,65,33,29.98,29.80,17,6,27,0.00
2013-5-6,77.5,67.5,57.9,61.7,55.8,50.0,97,70,43,30.05,29.94,15,4,24,0.00
2013-5-7,78.8,66.9,55.4,59.9,56.6,52.7,99,73,48,30.10,30.01,14,4,21,0.00
2013-5-8,82.8,70.1,58.5,64.3,59.1,56.3,99,72,45,30.18,30.07,12,3,18,0.00
2013-5-9,87.8,72.9,57.9,65.5,60.1,56.7,99,70,39,30.20,30.10,8,1,12,0.00
2013-5-10,91.8,77.6,63.0,73.6,65.7,60.1,99,71,38,30.18,30.02,12,3,17,0.00
2013-5-11,88.7,76.8,67.5,74.0,69.4,65.5,99,80,54,30.10,30.01,14,3,22,0.00
2013-5-12,88.7,77.0,69.1,75.1,68.3,64.0,99,78,52,30.09,29.98,16,4,21,0.00
2013-5-13,86.0,73.2,61.5,67.9,60.0,47.1,99,70,33,30.17,30.04,12,3,17,0.00
2013-5-14,85.8,70.5,51.6,58.8,51.2,42.8,93,58,26,30.25,30.15,11,2,14,0.00
2013-5-15,86.9,72.8,56.1,63.1,57.6,49.8,96,64,34,30.26,30.12,11,2,14,0.00
2013-5-16,89.1,76.4,64.6,65.6,61.3,53.9,91,64,37,30.18,30.04,9,3,15,0.00
2013-5-17,90.7,77.7,63.1,69.1,63.6,57.4,95,66,38,30.14,30.06,11,2,17,0.00
2013-5-18,95.9,80.6,67.6,73.7,68.1,59.8,99,71,35,30.15,30.03,11,2,17,0.04
2013-5-19,93.7,79.9,71.6,74.5,70.8,63.0,98,77,41,30.13,30.01,12,3,20,0.02
2013-5-20,93.2,77.1,68.5,73.8,70.4,65.7,99,83,48,30.12,30.01,11,2,18,0.60
2013-5-21,84.4,73.6,67.1,75.1,70.5,66.8,99,91,65,30.08,29.99,15,2,25,0.02
2013-5-22,90.0,75.8,69.1,76.1,71.6,68.1,99,89,51,30.02,29.93,12,2,17,0.15
2013-5-23,91.9,74.0,68.0,75.5,70.0,67.7,99,89,52,30.05,29.96,8,1,11,0.01
2013-5-24,95.4,80.8,68.9,76.9,67.3,54.9,99,71,30,30.12,30.01,14,3,20,0.00
2013-5-25,89.6,78.3,69.3,70.5,65.0,59.1,96,67,44,30.23,30.11,10,3,18,0.00
2013-5-26,86.2,74.1,60.4,63.6,60.1,47.6,96,66,31,30.26,30.15,10,2,16,0.00
2013-5-27,88.5,74.8,61.9,67.3,63.2,60.3,99,72,43,30.23,30.11,10,3,17,0.00
2013-5-28,88.0,76.9,66.6,75.1,70.4,66.1,99,82,59,30.19,30.08,15,4,24,0.00
2013-5-29,84.7,76.1,71.2,75.4,73.0,70.9,99,91,68,30.18,30.09,16,4,29,0.17
2013-5-30,85.6,77.7,72.5,76.7,72.9,68.2,99,86,65,30.15,30.07,15,4,25,0.24
2013-5-31,87.8,78.9,72.0,74.4,71.6,70.2,97,80,62,30.14,30.05,15,5,22,0.00
2013-6-1,89.6,78.8,72.3,78.2,74.4,72.0,99,88,62,30.11,29.98,13,3,21,0.06
2013-6-2,93.7,80.5,74.1,77.3,74.8,72.1,99,85,54,30.05,29.92,14,2,21,0.00
2013-6-3,88.0,79.0,73.4,78.7,75.3,73.1,99,89,68,30.05,29.94,12,2,21,0.04
2013-6-4,86.4,77.7,71.8,76.2,73.7,70.3,99,89,62,30.07,29.98,11,2,21,0.12
2013-6-5,82.9,76.2,72.3,78.6,74.3,72.0,99,94,74,30.06,29.95,10,3,16,0.01
2013-6-6,80.6,76.0,73.2,79.4,75.0,72.6,99,97,86,29.96,29.70,19,7,30,2.68
2013-6-7,88.3,79.4,72.5,77.6,74.0,70.9,99,85,59,30.00,29.82,13,4,19,0.00
2013-6-8,89.1,76.8,72.1,79.1,74.5,71.8,99,93,69,30.15,29.99,8,2,12,0.85
2013-6-9,92.5,79.2,71.8,79.4,75.2,71.3,99,89,56,30.15,30.05,11,3,17,0.11
2013-6-10,94.5,80.5,72.7,79.5,75.6,69.1,99,87,56,30.14,30.03,16,2,27,0.08
2013-6-11,92.7,78.2,73.2,80.7,75.4,72.4,99,92,62,30.13,30.03,13,2,19,0.08
2013-6-12,96.6,82.2,70.3,79.0,73.7,69.9,99,79,49,30.13,30.03,10,2,17,0.01
2013-6-13,94.8,82.0,72.5,79.0,74.9,72.2,99,82,52,30.09,29.94,9,2,15,0.00
2013-6-14,90.5,82.1,74.3,78.0,74.1,68.2,99,79,53,29.99,29.90,13,4,20,0.00
2013-6-15,90.7,81.1,75.4,80.8,77.3,75.0,99,89,65,30.11,29.96,13,2,17,0.01
2013-6-16,94.6,82.6,73.2,79.3,76.0,71.8,99,84,51,30.13,30.03,20,3,29,1.82
2013-6-17,96.6,82.4,74.5,82.0,76.6,73.6,99,86,52,30.14,30.00,17,2,27,0.24
2013-6-18,94.8,82.0,73.9,79.8,75.9,72.8,99,84,52,30.12,30.00,12,2,17,0.02
2013-6-19,92.5,82.4,74.3,79.2,75.9,70.6,99,83,55,30.09,30.01,14,2,18,0.00
2013-6-20,95.0,80.6,71.8,78.2,74.1,69.9,99,83,50,30.14,30.04,19,2,28,0.24
2013-6-21,92.8,77.6,70.7,79.8,74.0,70.4,99,90,57,30.17,30.08,15,1,22,0.11
2013-6-22,92.8,79.8,71.8,79.7,73.5,67.6,99,84,49,30.16,30.08,10,2,19,0.00
2013-6-23,94.5,80.1,72.7,79.3,75.7,69.7,99,89,51,30.19,30.10,15,2,24,0.02
2013-6-24,92.7,82.5,74.7,78.7,75.0,68.3,99,81,50,30.23,30.11,13,3,19,0.00
2013-6-25,94.5,83.4,74.5,79.9,74.5,69.4,99,78,49,30.19,30.06,9,2,15,0.00
2013-6-26,95.7,80.4,72.3,79.9,75.5,71.8,99,88,52,30.12,30.04,16,2,28,0.24
2013-6-27,92.8,80.8,71.4,78.9,74.4,71.1,99,83,54,30.11,29.98,8,2,13,0.01
2013-6-28,91.6,79.8,72.5,79.4,76.1,70.0,99,90,61,30.02,29.90,13,3,21,0.37
2013-6-29,88.7,79.1,75.6,81.4,76.9,73.3,99,94,70,29.93,29.85,20,3,31,0.18
2013-6-30,88.2,77.3,74.1,80.9,75.9,73.3,99,96,72,29.93,29.86,19,3,30,0.24
2013-7-1,81.5,75.6,72.1,78.7,74.8,71.5,99,98,87,30.06,29.90,10,3,17,0.45
2013-7-2,84.6,76.4,73.2,79.9,75.0,72.7,99,96,77,30.14,30.01,14,2,24,0.11
2013-7-3,90.3,77.4,73.4,80.8,75.6,72.9,99,95,67,30.17,30.09,16,3,30,0.22
2013-7-4,89.1,77.7,72.1,80.4,75.1,71.7,99,93,70,30.19,30.11,12,3,24,0.17
2013-7-5,89.8,78.3,71.8,80.4,76.0,71.5,99,94,67,30.20,30.10,15,3,24,0.37
2013-7-6,90.9,81.7,74.1,79.6,75.7,72.6,99,84,58,30.17,30.07,11,4,18,0.01
2013-7-7,90.7,82.2,74.7,79.7,76.1,71.7,99,84,57,30.18,30.08,12,3,18,0.00
2013-7-8,93.2,82.9,74.3,80.7,75.5,70.0,99,81,53,30.20,30.11,10,2,15,0.00
2013-7-9,93.6,82.1,72.5,80.5,74.8,68.7,99,81,48,30.21,30.10,12,2,21,0.00
2013-7-10,93.6,81.4,71.2,79.4,74.1,70.9,99,82,51,30.14,30.00,11,2,15,0.00
2013-7-11,90.7,80.2,73.6,78.3,75.2,72.6,99,86,58,30.09,29.96,14,2,21,0.00
2013-7-12,86.2,78.3,73.8,79.6,76.5,73.5,99,95,78,30.01,29.93,11,1,14,0.72
2013-7-13,89.6,77.5,72.0,78.5,75.1,71.7,99,93,63,30.04,29.96,17,2,26,0.02
2013-7-14,90.3,77.4,73.4,79.5,75.4,73.1,99,94,68,30.13,30.01,11,2,17,0.12
2013-7-15,92.5,78.8,70.9,79.2,75.1,70.4,99,90,57,30.16,30.06,8,2,16,0.00
2013-7-16,90.5,77.6,73.2,79.1,74.9,72.9,99,93,60,30.21,30.13,25,3,40,0.61
2013-7-17,90.3,78.3,73.2,81.0,75.5,72.9,99,92,63,30.20,30.11,20,2,33,0.19
2013-7-18,88.2,77.4,71.6,79.6,74.5,71.3,99,92,69,30.17,30.09,10,2,16,0.27
2013-7-19,89.8,77.3,72.0,78.7,74.2,71.7,99,91,65,30.18,30.07,11,2,19,0.98
2013-7-20,73.2,72.9,72.9,72.7,72.6,72.4,99,99,99,30.16,30.13,2,1,4,0.00
2013-7-21,93.4,82.5,75.4,80.5,77.9,75.1,99,88,64,30.18,30.07,11,2,15,0.35
2013-7-22,92.3,80.1,74.1,82.1,76.8,73.8,99,91,62,30.17,30.10,13,2,18,0.01
2013-7-23,87.4,78.7,74.7,82.3,76.4,74.4,99,93,70,30.14,30.01,11,3,19,0.01
2013-7-24,88.3,80.3,75.0,82.1,78.1,74.7,99,94,74,30.05,29.93,21,4,30,0.18
2013-7-25,86.7,79.8,74.5,82.4,78.0,74.0,99,95,74,30.05,29.91,15,3,23,0.45
2013-7-26,95.4,82.3,74.7,82.1,76.9,74.4,99,86,54,30.06,29.98,14,2,18,0.01
2013-7-27,94.5,83.4,74.3,82.1,76.6,72.5,99,83,56,30.04,29.94,10,2,14,0.01
2013-7-28,91.4,80.3,74.1,81.4,76.5,72.9,99,89,60,30.11,29.98,10,1,14,0.00
2013-7-29,96.1,81.8,72.0,80.3,75.2,71.7,99,83,50,30.20,30.06,14,1,22,0.01
2013-7-30,96.3,83.4,73.4,82.3,76.6,70.7,99,83,50,30.22,30.11,10,2,16,0.00
2013-7-31,95.0,81.3,73.8,82.6,76.2,72.2,99,87,52,30.18,30.04,14,2,21,0.15
2013-8-1,94.5,81.3,74.3,81.4,75.8,70.9,99,86,52,30.11,29.98,11,2,15,0.02
2013-8-2,96.3,81.1,73.4,80.8,76.1,73.1,99,87,52,30.08,29.98,7,2,12,0.00
2013-8-3,92.8,79.6,75.0,82.8,76.6,74.5,99,92,62,30.14,30.05,17,2,24,0.00
2013-8-4,90.5,80.2,75.2,84.3,78.7,74.9,99,96,71,30.14,30.03,18,2,29,0.00
2013-8-5,94.8,83.7,76.1,83.3,78.9,75.8,99,87,62,30.07,29.96,12,2,17,0.00
2013-8-6,96.4,82.7,74.7,82.7,77.9,74.4,99,88,58,30.03,29.93,14,1,20,0.00
2013-8-7,96.1,83.4,77.2,83.4,78.4,75.9,99,87,58,30.02,29.94,10,2,16,0.00
2013-8-8,94.3,82.8,77.4,82.2,78.5,75.0,99,89,57,30.09,29.98,11,2,16,0.00
2013-8-9,93.6,81.0,75.2,81.5,77.5,74.7,99,91,62,30.11,30.01,17,3,31,0.01
2013-8-10,94.3,83.4,73.6,82.1,76.3,69.6,99,82,50,30.17,30.08,11,2,15,0.00
2013-8-11,95.2,84.8,75.2,82.0,77.2,69.3,99,81,49,30.20,30.09,8,2,12,0.00
2013-8-12,95.7,84.2,74.3,81.6,76.9,72.5,99,81,55,30.17,30.04,8,2,13,0.00
2013-8-13,97.7,85.1,75.2,81.2,76.9,70.3,99,80,46,30.10,29.96,8,1,13,0.00
2013-8-14,95.4,82.1,75.6,82.7,78.3,74.7,99,90,61,30.07,29.94,14,2,20,0.00
2013-8-15,94.1,83.0,74.7,80.3,77.5,74.4,99,85,59,30.09,29.97,11,2,15,0.00
2013-8-16,92.8,83.5,77.0,81.4,78.4,75.0,99,86,59,30.11,30.00,9,2,14,0.64
2013-8-17,93.6,80.9,74.1,83.6,77.9,73.8,99,92,64,30.12,30.03,15,2,23,0.61
2013-8-18,91.6,79.6,74.7,82.3,77.5,74.4,99,94,65,30.15,30.05,17,2,30,0.97
2013-8-19,95.5,80.8,73.8,83.3,77.5,72.7,99,91,58,30.14,30.01,13,2,21,0.11
2013-8-20,94.8,81.1,74.1,82.2,77.0,73.8,99,89,57,30.14,30.03,14,2,21,0.01
2013-8-21,93.2,81.7,75.0,84.1,78.1,74.7,99,90,63,30.15,30.06,13,2,23,0.08
2013-8-22,92.5,78.6,75.9,83.1,77.3,75.6,99,96,65,30.14,30.03,7,2,13,0.08
2013-8-23,95.4,81.2,75.2,83.0,77.6,44.8,99,90,58,30.07,29.98,14,2,24,0.00
2013-8-24,93.6,79.6,73.8,83.2,76.8,73.5,99,92,64,30.16,30.04,13,2,27,0.26
2013-8-25,90.7,80.0,73.9,81.8,76.8,73.6,99,91,67,30.20,30.11,10,2,16,0.00
2013-8-26,91.0,79.1,73.9,81.3,76.7,73.6,99,93,66,30.18,30.05,17,2,29,0.84
2013-8-27,90.5,80.9,72.3,80.6,74.1,70.2,99,82,57,30.11,30.02,11,2,17,0.00
2013-8-28,94.3,80.7,70.5,77.5,72.9,67.9,99,81,46,30.11,30.01,9,1,15,0.00
2013-8-29,95.5,82.4,72.0,78.0,74.0,70.3,99,79,47,30.09,29.97,7,1,10,0.00
2013-8-30,94.5,82.0,73.9,80.2,77.1,73.6,99,87,57,30.03,29.94,7,2,11,0.00
2013-8-31,91.4,83.9,73.9,81.7,77.4,73.6,99,82,64,30.02,29.93,12,3,17,0.01
2013-9-1,94.8,80.6,72.1,80.3,75.7,71.8,99,87,56,30.04,29.93,11,2,17,0.00
2013-9-2,93.4,79.8,72.1,81.4,76.2,71.8,99,90,60,30.06,29.97,10,2,17,0.00
2013-9-3,92.3,81.0,73.0,82.4,77.0,72.7,99,89,62,30.07,29.97,9,2,14,0.00
2013-9-4,95.2,80.0,72.1,81.4,76.1,71.8,99,90,58,30.13,30.02,16,1,24,0.20
2013-9-5,97.3,80.8,72.1,83.0,75.7,69.8,99,87,53,30.14,30.03,14,2,24,0.09
2013-9-6,94.5,78.5,71.6,83.6,74.9,71.3,99,91,55,30.10,29.97,15,2,32,0.18
2013-9-7,93.6,78.4,70.5,80.4,74.4,70.2,99,90,56,30.07,29.96,11,2,15,0.00
2013-9-8,94.6,81.1,71.4,81.5,74.3,71.1,99,83,51,30.03,29.91,9,2,16,0.00
2013-9-9,95.4,81.6,71.8,79.8,73.9,66.9,99,81,45,30.08,29.98,8,2,14,0.00
2013-9-10,91.8,81.6,73.9,79.1,74.2,66.5,99,81,49,30.14,30.03,10,2,16,0.00
2013-9-11,93.0,82.2,73.6,79.9,73.8,69.7,99,79,50,30.12,30.03,11,3,17,0.00
2013-9-12,93.0,78.5,72.3,81.2,75.4,72.0,99,92,60,30.07,29.94,11,1,19,0.47
2013-9-13,94.3,79.9,70.7,79.8,74.6,70.4,99,86,55,29.96,29.84,12,1,19,0.00
2013-9-14,95.5,82.8,73.0,80.3,76.1,72.7,99,83,52,30.03,29.88,10,1,16,0.00
2013-9-15,92.5,78.5,72.9,82.5,76.1,72.6,99,93,65,30.12,30.01,19,2,36,0.04
2013-9-16,92.7,78.9,71.4,81.4,75.4,71.1,99,91,56,30.12,30.02,14,2,24,0.01
2013-9-17,91.0,79.0,71.4,81.2,75.6,71.1,99,90,63,30.11,29.99,12,2,19,0.04
2013-9-18,88.2,78.9,72.9,80.7,76.2,72.6,99,92,73,30.09,30.01,11,3,20,0.01
2013-9-19,92.3,80.2,72.3,80.7,74.8,71.4,99,86,57,30.09,30.00,11,3,17,0.00
2013-9-20,90.9,79.4,69.3,76.4,71.6,68.9,99,80,53,30.08,29.94,8,2,14,0.00
2013-9-21,91.6,79.3,68.4,78.7,72.4,68.1,99,82,53,30.00,29.81,8,1,11,0.00
2013-9-22,90.0,78.6,73.8,79.7,76.7,73.1,99,95,68,29.91,29.81,16,2,24,0.94
2013-9-23,86.4,76.4,73.4,82.1,75.7,73.1,99,98,82,30.01,29.88,11,2,17,2.04
2013-9-24,85.1,77.2,74.3,80.3,76.3,74.0,99,97,80,30.01,29.89,12,3,18,0.15
2013-9-25,81.7,75.9,72.5,78.5,74.9,72.2,99,97,84,29.92,29.83,16,4,21,0.18
2013-9-26,90.9,80.9,73.8,83.0,75.1,64.0,99,86,46,29.92,29.83,14,4,21,0.14
2013-9-27,86.4,76.2,69.8,77.4,73.0,69.5,99,91,67,30.01,29.91,11,3,17,0.00
2013-9-28,88.3,76.4,70.3,80.6,73.8,70.0,99,92,70,30.05,29.96,8,2,15,0.14
2013-9-29,91.9,78.0,68.9,77.4,71.7,68.6,99,84,52,30.04,29.94,7,2,12,0.00
2013-9-30,91.2,78.3,68.2,78.0,72.3,67.9,99,84,54,30.06,29.96,7,1,14,0.00
2013-10-1,92.7,79.7,71.2,78.5,73.9,70.7,99,85,54,30.11,30.01,11,2,16,0.00
2013-10-2,91.0,79.1,69.8,76.1,73.1,69.5,99,84,58,30.11,30.03,8,2,13,0.00
2013-10-3,91.4,79.6,70.0,76.3,73.0,69.7,99,83,55,30.13,30.03,8,2,14,0.00
2013-10-4,94.5,80.4,71.8,79.0,74.1,69.7,99,84,49,30.14,30.03,7,1,10,0.00
2013-10-5,91.4,79.3,69.4,78.6,73.4,69.1,99,84,58,30.11,29.99,9,2,14,0.00
2013-10-6,92.5,80.2,70.7,80.2,74.1,70.4,99,84,53,30.04,29.90,8,2,12,0.00
2013-10-7,86.2,77.2,73.2,82.1,76.2,72.9,99,97,84,29.92,29.78,16,3,23,0.37
2013-10-8,88.3,78.9,74.5,81.8,76.8,74.2,99,94,74,30.00,29.83,16,3,22,0.11
2013-10-9,82.4,73.7,66.4,74.2,71.2,66.1,99,93,72,30.09,29.98,9,4,17,0.00
2013-10-10,89.4,74.8,63.7,73.6,68.1,63.4,99,83,52,30.11,30.01,7,2,14,0.01
2013-10-11,89.1,76.9,63.9,73.9,67.4,63.6,99,76,49,30.09,29.99,9,1,16,0.00
2013-10-12,88.0,74.6,63.3,71.7,65.7,62.5,99,78,46,30.10,30.01,9,2,14,0.00
2013-10-13,89.6,74.6,62.6,72.9,65.7,60.0,99,78,43,30.13,30.03,7,1,11,0.00
2013-10-14,87.8,74.4,63.9,74.0,67.6,63.6,99,83,49,30.10,29.97,10,2,16,0.00
2013-10-15,83.5,71.2,65.8,74.8,69.9,65.5,99,96,72,30.06,29.94,7,2,11,0.00
2013-10-16,89.1,76.5,69.1,76.4,71.0,68.5,99,86,54,30.03,29.93,5,1,8,0.00
2013-10-17,92.5,77.8,66.9,78.8,71.9,66.6,99,85,53,30.03,29.93,4,0,8,0.00
2013-10-18,92.5,79.9,69.6,79.1,73.3,69.3,99,83,52,30.04,29.93,8,1,11,0.00
2013-10-19,92.5,79.3,70.2,78.9,74.6,69.9,99,88,56,30.01,29.91,7,1,11,0.01
2013-10-20,90.5,80.2,73.8,81.5,76.3,73.3,99,89,65,30.02,29.91,7,1,11,0.01
2013-10-21,92.3,79.5,70.5,81.4,74.9,70.2,99,88,60,30.05,29.95,8,1,12,0.00
2013-10-22,90.0,78.4,71.8,80.5,74.7,71.3,99,90,65,29.99,29.86,14,3,21,0.11
2013-10-23,83.3,73.6,64.9,72.7,66.5,55.5,99,81,47,30.07,29.85,11,3,17,0.07
2013-10-24,71.8,64.1,58.5,60.8,57.6,53.3,99,80,62,30.22,30.05,8,2,12,0.00
2013-10-25,83.1,67.1,55.0,64.5,57.0,54.2,99,76,42,30.29,30.18,9,2,13,0.00
2013-10-26,82.2,66.1,54.0,63.2,57.0,53.5,99,77,42,30.26,30.13,8,2,11,0.00
2013-10-27,83.1,66.2,53.8,64.6,57.2,53.5,99,78,43,30.19,30.09,10,1,14,0.00
2013-10-28,86.7,69.2,53.6,66.8,60.7,53.3,99,78,47,30.24,30.14,7,1,11,0.00
2013-10-29,87.6,72.0,61.2,72.6,65.5,60.9,99,83,52,30.27,30.17,9,2,16,0.01
2013-10-30,67.6,65.4,63.5,67.3,65.1,63.2,99,99,99,30.25,30.21,4,1,5,0.00
2013-10-31,86.4,74.5,63.5,73.9,68.8,63.2,99,84,54,30.17,30.02,9,2,15,0.00
2013-11-1,89.2,77.3,69.8,76.7,71.6,67.4,99,85,54,30.06,29.91,13,3,21,0.00
2013-11-2,75.4,69.7,61.9,74.9,69.4,61.6,99,99,96,30.03,29.86,14,2,21,0.76
2013-11-3,78.3,65.3,55.0,63.6,55.8,47.8,99,77,38,30.16,30.01,11,3,17,0.01
2013-11-4,80.2,68.1,55.8,68.7,62.4,55.1,99,84,56,30.22,30.14,14,4,24,0.00
2013-11-5,84.0,72.4,64.4,73.0,68.8,63.9,99,90,61,30.20,30.10,12,4,21,0.00
2013-11-6,85.8,73.8,66.2,74.0,69.0,65.9,99,87,59,30.16,30.06,9,1,14,0.00
2013-11-7,83.8,71.4,64.8,74.9,68.6,64.5,99,92,64,30.11,30.01,8,1,13,0.00
2013-11-8,81.1,69.4,62.1,68.1,65.0,60.6,99,88,62,30.17,30.04,11,4,19,0.00
2013-11-9,82.4,70.8,61.3,69.5,65.3,61.1,99,84,62,30.22,30.13,11,3,20,0.00
2013-11-10,86.7,72.0,62.2,72.1,66.3,62.0,99,85,53,30.22,30.11,9,1,14,0.00
2013-11-11,85.3,72.1,62.6,71.6,67.0,62.3,99,86,57,30.21,30.10,8,2,12,0.00
2013-11-12,81.3,71.1,62.8,73.4,67.7,62.5,99,90,68,30.16,30.04,8,1,11,0.00
2013-11-13,68.0,60.9,52.5,66.5,53.8,49.6,96,78,63,30.36,30.12,16,6,28,0.00
2013-11-14,77.4,61.8,48.6,60.0,55.4,48.3,99,83,52,30.35,30.22,14,3,21,0.00
2013-11-15,77.4,67.1,57.0,69.6,64.8,56.7,99,93,71,30.24,30.12,7,1,11,0.01
2013-11-16,75.0,70.4,68.0,74.5,70.1,67.7,99,99,98,30.18,30.08,8,2,13,0.28
2013-11-17,87.1,75.9,68.5,76.3,72.6,68.2,99,91,66,30.14,30.03,11,2,16,0.00
2013-11-18,86.2,74.7,66.9,77.2,71.9,66.6,99,92,69,30.08,29.96,8,1,13,0.01
2013-11-19,82.9,71.8,63.7,73.3,68.4,63.3,99,90,63,30.03,29.93,8,2,14,0.00
2013-11-20,84.6,70.6,61.5,75.2,68.8,61.2,99,95,71,30.15,30.01,8,2,15,0.26
2013-11-21,82.4,72.6,69.6,77.6,71.6,69.3,99,97,75,30.23,30.13,11,2,19,0.06
2013-11-22,83.1,73.4,65.7,76.2,70.5,65.4,99,91,71,30.24,30.14,10,2,17,0.00
2013-11-23,86.5,72.0,62.2,74.2,67.0,62.0,99,86,55,30.16,30.04,7,1,11,0.00
2013-11-24,70.9,64.2,58.6,66.8,61.2,55.3,99,90,79,30.27,30.06,11,4,21,0.00
2013-11-25,73.6,67.3,58.1,66.6,60.8,55.8,99,81,64,30.28,30.11,14,4,23,0.00
2013-11-26,82.4,74.2,66.9,76.7,72.2,66.6,99,94,78,30.11,29.80,14,5,21,0.18
2013-11-27,73.8,61.8,41.9,73.5,59.1,39.3,99,91,73,30.26,29.76,21,8,30,0.14
2013-11-28,67.5,50.1,34.9,53.5,45.4,34.6,99,86,60,30.39,30.25,11,4,14,0.00
2013-11-29,74.1,59.8,49.3,61.5,55.5,49.0,99,87,63,30.40,30.30,11,4,20,0.00
2013-11-30,79.3,64.2,53.1,67.2,60.9,52.8,99,90,66,30.35,30.21,11,3,19,0.00
2013-12-1,75.0,65.8,61.0,69.4,63.9,60.5,99,94,78,30.23,30.01,8,2,14,0.00
2013-12-2,72.1,64.3,59.9,66.4,60.2,56.9,99,88,65,30.02,29.88,10,2,14,0.00
2013-12-3,80.6,67.4,55.2,67.0,62.4,54.8,99,86,60,30.04,29.93,8,1,12,0.00
2013-12-4,84.2,70.7,61.5,72.6,66.9,61.1,99,90,61,30.13,30.01,7,1,11,0.00
2013-12-5,85.1,72.5,62.4,73.6,67.7,62.1,99,87,62,30.22,30.12,10,2,13,0.00
2013-12-6,87.3,74.6,63.9,76.5,70.3,63.6,99,88,61,30.22,30.12,9,2,16,0.00
2013-12-7,86.7,73.5,63.5,74.6,67.7,63.2,99,85,53,30.28,30.18,7,1,10,0.00
2013-12-8,83.8,73.0,62.2,76.4,69.1,61.8,99,89,64,30.27,30.14,10,2,16,0.01
2013-12-9,84.2,73.0,64.0,75.8,69.7,63.8,99,91,64,30.24,30.13,8,2,14,0.00
2013-12-10,86.0,73.6,61.3,75.7,67.7,60.9,99,85,49,30.22,30.11,11,3,17,0.00
2013-12-11,87.1,71.9,59.4,71.3,66.5,57.9,99,85,58,30.29,30.18,9,2,15,0.00
2013-12-12,72.9,62.1,49.6,64.8,53.4,32.9,99,77,41,30.36,30.23,13,3,18,0.00
2013-12-13,77.0,60.6,46.0,60.3,54.1,43.3,99,81,56,30.32,30.16,11,2,17,0.00
2013-12-14,82.9,71.6,60.4,74.2,68.5,59.9,99,91,71,30.16,29.99,11,3,21,0.01
2013-12-15,73.4,68.1,57.9,73.1,66.0,57.6,99,93,76,30.16,29.93,14,4,25,0.48
2013-12-16,68.4,55.7,45.3,57.6,49.8,43.4,99,83,54,30.28,30.15,9,3,12,0.00
2013-12-17,75.6,56.0,41.9,57.6,49.7,41.6,99,82,52,30.30,30.18,7,1,11,0.00
2013-12-18,73.6,55.8,43.9,50.0,46.7,42.7,99,76,43,30.33,30.24,11,2,14,0.00
2013-12-19,78.3,58.7,39.6,61.2,52.2,39.1,99,83,45,30.32,30.21,8,1,14,0.00
2013-12-20,83.1,68.1,54.5,67.9,62.6,54.2,99,85,60,30.25,30.14,12,2,19,0.00
2013-12-21,84.9,73.5,64.8,75.2,69.5,64.5,99,89,68,30.19,30.07,13,4,21,0.00
2013-12-22,85.5,76.0,69.1,76.3,72.1,68.8,99,89,69,30.19,30.10,11,3,21,0.00
2013-12-23,87.1,75.0,65.5,78.1,71.7,65.2,99,91,61,30.22,30.11,12,2,17,0.00
2013-12-24,73.2,63.6,47.1,72.7,55.1,37.1,99,78,35,30.30,30.14,15,5,21,0.06
2013-12-25,77.4,58.7,43.3,61.7,52.4,42.4,99,82,56,30.29,30.18,10,3,17,0.00
2013-12-26,79.3,65.3,57.2,66.3,61.3,56.9,99,88,60,30.27,30.13,8,2,14,0.00
2013-12-27,70.9,64.3,58.5,69.7,63.9,58.2,99,99,94,30.29,30.19,8,3,13,0.01
2013-12-28,79.2,71.2,64.0,73.7,69.3,63.8,99,94,78,30.26,30.05,14,4,19,0.00
2013-12-29,78.1,71.4,61.2,76.6,71.1,60.9,99,99,92,30.06,29.92,12,4,22,0.18
2013-12-30,69.4,61.2,58.5,65.4,60.5,57.1,99,98,85,30.24,30.04,9,2,12,0.00
2013-12-31,70.0,61.8,56.8,57.5,55.8,53.2,99,83,60,30.35,30.21,8,2,13,0.00
2014-1-1,64.0,60.8,57.7,63.8,60.3,55.5,99,98,86,30.29,30.10,7,2,14,0.12
2014-1-2,81.3,69.0,61.7,78.0,68.0,61.2,99,97,78,30.11,29.86,23,5,36,0.48